Wellington, Missouri
Current Conditions -  °F | °C
As of 6:15 PM on Friday 24 Oct 2014 (Local Time) from KGPH Reporting Station
Clear Clear  
Wind Chill: 73°   Ceiling: Unl
Heat Index: 73°   Visibility: 10mi
Dew Point: 61°   Wind: 6mph
Humidity: 65%   Direction: 190°S
Pressure: 29.92"   Gusts: NA
Location:  39.13°N, 93.98°W
Report Text: KGPH 242315Z AUTO 19005KT 10SM CLR 23/16 A2992 RMK AO2
Loading
Personal Weather Stations






























Interactive Weather Map
Tropical Storm Tracking
New forecast layout! Learn more

10-Day Weather Forecast

Advertisements
Track Severe Weather on mobile